createdAt,value
2023-11-25T00:00:46.509Z,4.70
2023-11-25T00:03:13.758Z,4.70
2023-11-25T00:05:40.828Z,4.70
2023-11-25T00:08:08.115Z,4.70
2023-11-25T00:10:35.413Z,4.80
2023-11-25T00:13:05.057Z,4.80
2023-11-25T00:15:32.040Z,4.70
2023-11-25T00:17:59.625Z,4.80
2023-11-25T00:20:26.649Z,4.80
2023-11-25T00:22:53.977Z,4.70
2023-11-25T00:25:21.192Z,4.80
2023-11-25T00:27:48.195Z,4.80
2023-11-25T00:30:16.824Z,4.80
2023-11-25T00:32:44.041Z,4.80
2023-11-25T00:35:11.727Z,4.80
2023-11-25T00:37:40.548Z,4.80
2023-11-25T00:40:11.223Z,4.80
2023-11-25T00:42:41.822Z,4.80
2023-11-25T00:45:12.383Z,4.80
2023-11-25T00:47:41.773Z,4.80
2023-11-25T00:50:10.082Z,4.80
2023-11-25T00:52:37.338Z,4.80
2023-11-25T00:55:04.982Z,4.80
2023-11-25T00:57:32.227Z,4.70
2023-11-25T00:59:59.452Z,4.70
2023-11-25T01:02:28.877Z,4.70
2023-11-25T01:04:57.498Z,4.70
2023-11-25T01:07:24.510Z,4.70
2023-11-25T01:09:51.538Z,4.70
2023-11-25T01:12:18.415Z,4.70
2023-11-25T01:14:45.343Z,4.70
2023-11-25T01:17:12.311Z,4.70
2023-11-25T01:19:39.469Z,4.70
2023-11-25T01:22:07.861Z,4.70
2023-11-25T01:24:34.814Z,4.70
2023-11-25T01:27:01.878Z,4.70
2023-11-25T01:29:28.744Z,4.70
2023-11-25T01:31:55.682Z,4.70
2023-11-25T01:34:22.608Z,4.70
2023-11-25T01:36:49.567Z,4.70
2023-11-25T01:39:17.782Z,4.70
2023-11-25T01:41:45.213Z,4.70
2023-11-25T01:44:13.618Z,4.70
2023-11-25T01:46:44.384Z,4.70
2023-11-25T01:49:15.439Z,4.70
2023-11-25T01:51:44.080Z,4.70
2023-11-25T01:54:14.925Z,4.60
2023-11-25T01:56:44.524Z,4.70
2023-11-25T01:59:12.924Z,4.70
2023-11-25T02:01:40.621Z,4.70
2023-11-25T02:04:08.883Z,4.60
2023-11-25T02:06:36.133Z,4.60
2023-11-25T02:09:04.384Z,4.60
2023-11-25T02:11:31.252Z,4.60
2023-11-25T02:13:59.709Z,4.60
2023-11-25T02:16:27.245Z,4.60
2023-11-25T02:18:54.405Z,4.60
2023-11-25T02:21:21.380Z,4.60
2023-11-25T02:23:49.633Z,4.70
2023-11-25T02:26:16.513Z,4.70
2023-11-25T02:28:43.424Z,4.70
2023-11-25T02:31:10.400Z,4.70
2023-11-25T02:33:37.419Z,4.70
2023-11-25T02:36:05.222Z,4.70
2023-11-25T02:38:32.052Z,4.70
2023-11-25T02:41:00.345Z,4.70
2023-11-25T02:43:27.421Z,4.70
2023-11-25T02:45:54.441Z,4.80
2023-11-25T02:48:21.399Z,4.80
2023-11-25T02:50:48.841Z,4.80
2023-11-25T02:53:15.837Z,4.90
2023-11-25T02:55:44.441Z,4.90
2023-11-25T02:58:13.783Z,4.90
2023-11-25T03:00:41.925Z,4.90
2023-11-25T03:03:10.553Z,4.90
2023-11-25T03:05:43.616Z,4.80
2023-11-25T03:08:18.381Z,4.70
2023-11-25T03:10:48.951Z,4.60
2023-11-25T03:13:17.993Z,4.50
2023-11-25T03:15:45.034Z,4.40
2023-11-25T03:18:12.196Z,4.30
2023-11-25T03:20:43.038Z,4.20
2023-11-25T03:23:09.962Z,4.20
2023-11-25T03:25:37.797Z,4.10
2023-11-25T03:28:06.978Z,4.10
2023-11-25T03:30:36.497Z,4.10
2023-11-25T03:33:03.445Z,4.00
2023-11-25T03:35:30.394Z,4.00
2023-11-25T03:37:57.390Z,4.00
2023-11-25T03:40:24.492Z,4.00
2023-11-25T03:42:51.377Z,4.10
2023-11-25T03:45:18.282Z,4.10
2023-11-25T03:47:46.820Z,4.10
2023-11-25T03:50:14.399Z,4.20
2023-11-25T03:52:42.221Z,4.10
2023-11-25T03:55:10.957Z,4.10
2023-11-25T03:57:38.882Z,4.10
2023-11-25T04:00:15.410Z,4.10
2023-11-25T04:02:43.512Z,4.20
2023-11-25T04:05:12.584Z,4.20
2023-11-25T04:07:40.263Z,4.20
2023-11-25T04:10:14.712Z,4.30
2023-11-25T04:12:42.197Z,4.40
2023-11-25T04:15:11.314Z,4.40
2023-11-25T04:17:39.385Z,4.40
2023-11-25T04:20:14.172Z,4.50
2023-11-25T04:22:44.176Z,4.50
2023-11-25T04:25:13.023Z,4.40
2023-11-25T04:27:41.206Z,4.40
2023-11-25T04:30:09.797Z,4.40
2023-11-25T04:32:37.008Z,4.50
2023-11-25T04:35:06.850Z,4.50
2023-11-25T04:37:33.966Z,4.50
2023-11-25T04:40:06.539Z,4.50
2023-11-25T04:42:33.959Z,4.50
2023-11-25T04:45:01.160Z,4.50
2023-11-25T04:47:28.481Z,4.50
2023-11-25T04:49:55.633Z,4.60
2023-11-25T04:52:22.660Z,4.60
2023-11-25T04:54:50.158Z,4.70
2023-11-25T04:57:19.317Z,4.70
2023-11-25T04:59:47.257Z,4.70
2023-11-25T05:02:14.982Z,4.70
2023-11-25T05:04:42.086Z,4.70
2023-11-25T05:07:09.308Z,4.60
2023-11-25T05:09:39.277Z,4.60
2023-11-25T05:12:07.269Z,4.60
2023-11-25T05:14:35.476Z,4.60
2023-11-25T05:17:02.480Z,4.60
2023-11-25T05:19:29.471Z,4.60
2023-11-25T05:21:57.041Z,4.60
2023-11-25T05:24:24.034Z,4.60
2023-11-25T05:26:50.924Z,4.60
2023-11-25T05:29:17.831Z,4.60
2023-11-25T05:31:46.425Z,4.60
2023-11-25T05:34:13.941Z,4.60
2023-11-25T05:36:41.061Z,4.60
2023-11-25T05:39:08.597Z,4.60
2023-11-25T05:41:38.388Z,4.60
2023-11-25T05:44:08.589Z,4.60
2023-11-25T05:46:35.971Z,4.60
2023-11-25T05:49:10.743Z,4.70
2023-11-25T05:51:45.188Z,4.70
2023-11-25T05:54:14.204Z,4.80
2023-11-25T05:56:41.795Z,4.80
2023-11-25T05:59:09.249Z,4.90
2023-11-25T06:01:36.344Z,4.90
2023-11-25T06:04:05.232Z,4.90
2023-11-25T06:06:32.200Z,5.00
2023-11-25T06:08:59.166Z,5.00
2023-11-25T06:11:30.120Z,5.00
2023-11-25T06:13:57.740Z,5.00
2023-11-25T06:16:30.448Z,5.00
2023-11-25T06:18:57.793Z,5.00
2023-11-25T06:21:27.346Z,5.00
2023-11-25T06:23:54.205Z,5.00
2023-11-25T06:26:21.089Z,5.00
2023-11-25T06:28:48.860Z,5.00
2023-11-25T06:31:16.909Z,5.10
2023-11-25T06:33:44.324Z,5.00
2023-11-25T06:36:12.085Z,5.00
2023-11-25T06:38:41.225Z,5.00
2023-11-25T06:41:10.730Z,4.90
2023-11-25T06:43:39.620Z,4.90
2023-11-25T06:46:06.699Z,4.80
2023-11-25T06:48:34.817Z,4.80
2023-11-25T06:51:01.919Z,4.80
2023-11-25T06:53:30.251Z,4.80
2023-11-25T06:55:59.645Z,4.80
2023-11-25T06:58:26.864Z,4.60
2023-11-25T07:00:54.863Z,4.80
2023-11-25T07:03:21.967Z,4.80
2023-11-25T07:05:49.047Z,4.90
2023-11-25T07:08:17.297Z,4.90
2023-11-25T07:10:54.533Z,4.90
2023-11-25T07:13:24.146Z,4.90
2023-11-25T07:15:51.138Z,4.90
2023-11-25T07:18:20.750Z,4.90
2023-11-25T07:20:48.012Z,5.00
2023-11-25T07:23:16.026Z,5.00
2023-11-25T07:25:43.374Z,5.00
2023-11-25T07:28:13.564Z,5.00
2023-11-25T07:30:43.022Z,5.00
2023-11-25T07:33:10.258Z,5.00
2023-11-25T07:35:37.484Z,5.10
2023-11-25T07:38:04.443Z,5.10
2023-11-25T07:40:31.444Z,5.20
2023-11-25T07:42:59.439Z,5.20
2023-11-25T07:45:26.811Z,5.20
2023-11-25T07:47:55.166Z,5.20
2023-11-25T07:50:23.070Z,5.30
2023-11-25T07:52:50.853Z,5.30
2023-11-25T07:55:18.082Z,5.30
2023-11-25T07:57:45.406Z,5.40
2023-11-25T08:00:16.573Z,5.40
2023-11-25T08:02:43.884Z,5.40
2023-11-25T08:05:12.384Z,5.40
2023-11-25T08:07:39.370Z,5.40
2023-11-25T08:10:08.833Z,5.40
2023-11-25T08:12:35.838Z,5.40
2023-11-25T08:15:03.371Z,5.40
2023-11-25T08:17:31.239Z,5.40
2023-11-25T08:19:58.283Z,5.40
2023-11-25T08:22:26.907Z,5.30
2023-11-25T08:24:57.287Z,5.30
2023-11-25T08:27:24.140Z,5.30
2023-11-25T08:29:51.216Z,5.20
2023-11-25T08:32:18.296Z,5.10
2023-11-25T08:34:45.353Z,5.10
2023-11-25T08:37:12.316Z,5.10
2023-11-25T08:39:40.673Z,5.10
2023-11-25T08:42:10.073Z,5.10
2023-11-25T08:44:37.149Z,5.10
2023-11-25T08:47:04.583Z,5.10
2023-11-25T08:49:33.286Z,5.10
2023-11-25T08:52:00.280Z,5.10
2023-11-25T08:54:27.202Z,5.00
2023-11-25T08:56:55.993Z,5.00
2023-11-25T08:59:22.973Z,5.00
2023-11-25T09:01:50.442Z,5.10
2023-11-25T09:04:20.979Z,5.10
2023-11-25T09:06:48.883Z,5.00
2023-11-25T09:09:17.908Z,5.00
2023-11-25T09:11:45.088Z,4.90
2023-11-25T09:14:15.869Z,4.90
2023-11-25T09:16:43.909Z,5.00
2023-11-25T09:19:10.891Z,5.00
2023-11-25T09:21:37.990Z,5.00
2023-11-25T09:24:05.675Z,5.00
2023-11-25T09:26:32.515Z,5.10
2023-11-25T09:28:59.446Z,5.10
2023-11-25T09:31:28.148Z,5.10
2023-11-25T09:33:55.295Z,5.20
2023-11-25T09:36:23.801Z,5.20
2023-11-25T09:38:50.870Z,5.20
2023-11-25T09:41:18.608Z,5.20
2023-11-25T09:43:46.156Z,5.30
2023-11-25T09:46:15.093Z,5.40
2023-11-25T09:48:43.521Z,5.50
2023-11-25T09:51:14.769Z,5.50
2023-11-25T09:53:44.354Z,5.60
2023-11-25T09:56:13.077Z,5.60
2023-11-25T09:58:40.371Z,5.60
2023-11-25T10:01:07.906Z,5.60
2023-11-25T10:03:36.120Z,5.60
2023-11-25T10:06:04.995Z,5.50
2023-11-25T10:08:33.824Z,5.50
2023-11-25T10:11:02.875Z,5.40
2023-11-25T10:13:34.137Z,5.40
2023-11-25T10:16:01.541Z,5.40
2023-11-25T10:18:30.006Z,5.30
2023-11-25T10:21:00.556Z,5.30
2023-11-25T10:23:29.245Z,5.30
2023-11-25T10:25:59.931Z,5.30
2023-11-25T10:28:27.621Z,5.30
2023-11-25T10:30:55.683Z,5.30
2023-11-25T10:33:23.111Z,5.30
2023-11-25T10:35:50.260Z,5.20
2023-11-25T10:38:17.936Z,5.20
2023-11-25T10:40:46.787Z,5.20
2023-11-25T10:43:13.794Z,5.20
2023-11-25T10:45:40.863Z,5.20
2023-11-25T10:48:09.499Z,5.30
2023-11-25T10:50:36.459Z,5.30
2023-11-25T10:53:06.431Z,5.30
2023-11-25T10:55:34.669Z,5.40
2023-11-25T10:58:06.409Z,5.40
2023-11-25T11:00:33.567Z,5.40
2023-11-25T11:03:06.600Z,5.40
2023-11-25T11:05:41.749Z,5.50
2023-11-25T11:08:13.298Z,5.50
2023-11-25T11:10:57.726Z,5.60
2023-11-25T11:13:39.687Z,5.70
2023-11-25T11:16:11.629Z,5.70
2023-11-25T11:18:42.718Z,5.80
2023-11-25T11:21:10.700Z,5.80
2023-11-25T11:23:38.921Z,5.80
2023-11-25T11:26:17.978Z,5.80
2023-11-25T11:28:53.951Z,5.80
2023-11-25T11:32:01.292Z,5.80
2023-11-25T11:34:30.626Z,5.80
2023-11-25T11:36:57.850Z,5.70
2023-11-25T11:39:38.581Z,5.70
2023-11-25T11:42:28.480Z,5.70
2023-11-25T11:44:57.985Z,5.70
2023-11-25T11:47:28.065Z,5.70
2023-11-25T11:49:55.131Z,5.80
2023-11-25T11:52:22.932Z,5.70
2023-11-25T11:54:49.960Z,5.70
2023-11-25T11:57:18.443Z,5.70
2023-11-25T12:00:00.886Z,5.70
2023-11-25T12:02:31.507Z,5.70
2023-11-25T12:05:00.186Z,5.70
2023-11-25T12:07:27.810Z,5.80
2023-11-25T12:09:56.350Z,5.90
2023-11-25T12:12:23.906Z,5.90
2023-11-25T12:14:53.490Z,6.00
2023-11-25T12:17:23.443Z,6.00
2023-11-25T12:19:53.508Z,6.10
2023-11-25T12:22:20.544Z,6.20
2023-11-25T12:24:47.443Z,6.20
2023-11-25T12:27:15.770Z,6.20
2023-11-25T12:29:42.695Z,6.20
2023-11-25T12:32:09.865Z,6.20
2023-11-25T12:34:38.323Z,6.30
2023-11-25T12:37:05.285Z,6.30
2023-11-25T12:39:32.170Z,6.30
2023-11-25T12:42:02.781Z,6.30
2023-11-25T12:44:48.092Z,6.40
2023-11-25T12:47:16.667Z,6.50
2023-11-25T12:49:46.157Z,6.50
2023-11-25T12:52:20.119Z,6.60
2023-11-25T12:54:47.497Z,6.60
2023-11-25T12:57:14.592Z,6.70
2023-11-25T12:59:42.668Z,6.70
2023-11-25T13:02:11.210Z,6.80
2023-11-25T13:04:49.377Z,6.90
2023-11-25T13:07:30.284Z,6.90
2023-11-25T13:09:57.253Z,7.00
2023-11-25T13:12:25.285Z,7.00
2023-11-25T13:14:52.507Z,7.10
2023-11-25T13:17:19.533Z,7.10
2023-11-25T13:19:47.836Z,7.20
2023-11-25T13:22:16.642Z,7.30
2023-11-25T13:24:45.238Z,7.40
2023-11-25T13:27:12.194Z,7.50
2023-11-25T13:29:39.086Z,7.60
2023-11-25T13:32:07.151Z,7.70
2023-11-25T13:34:34.250Z,7.70
2023-11-25T13:37:03.732Z,7.70
2023-11-25T13:39:32.452Z,7.80
2023-11-25T13:41:59.367Z,7.80
2023-11-25T13:44:26.320Z,7.80
2023-11-25T13:46:53.315Z,7.60
2023-11-25T13:49:20.213Z,7.80
2023-11-25T13:51:47.120Z,7.80
2023-11-25T13:54:16.584Z,7.80
2023-11-25T13:56:43.481Z,7.80
2023-11-25T13:59:10.320Z,7.80
2023-11-25T14:01:37.401Z,7.70
2023-11-25T14:04:04.705Z,7.50
2023-11-25T14:06:31.606Z,7.70
2023-11-25T14:09:00.007Z,7.60
2023-11-25T14:11:28.910Z,7.60
2023-11-25T14:13:57.413Z,7.60
2023-11-25T14:16:25.143Z,7.50
2023-11-25T14:18:53.393Z,7.50
2023-11-25T14:21:20.272Z,7.40
2023-11-25T14:23:47.142Z,7.40
2023-11-25T14:26:15.738Z,7.40
2023-11-25T14:28:44.654Z,7.40
2023-11-25T14:31:13.056Z,7.30
2023-11-25T14:33:39.977Z,7.30
2023-11-25T14:36:08.991Z,7.20
2023-11-25T14:38:36.686Z,7.20
2023-11-25T14:41:05.782Z,7.10
2023-11-25T14:43:32.788Z,7.20
2023-11-25T14:46:01.875Z,7.10
2023-11-25T14:48:28.838Z,7.10
2023-11-25T14:50:55.965Z,7.10
2023-11-25T14:53:22.948Z,7.10
2023-11-25T14:55:51.468Z,7.10
2023-11-25T14:58:18.458Z,7.10
2023-11-25T15:00:46.404Z,7.10
2023-11-25T15:03:14.785Z,7.00
2023-11-25T15:05:41.763Z,7.00
2023-11-25T15:08:08.809Z,7.10
2023-11-25T15:10:35.905Z,7.10
2023-11-25T15:13:02.893Z,7.10
2023-11-25T15:15:29.855Z,7.10
2023-11-25T15:17:56.824Z,7.00
2023-11-25T15:20:25.597Z,7.00
2023-11-25T15:22:52.718Z,7.00
2023-11-25T15:25:20.105Z,7.00
2023-11-25T15:27:47.274Z,7.00
2023-11-25T15:30:16.798Z,7.00
2023-11-25T15:32:43.922Z,7.00
2023-11-25T15:35:11.740Z,7.00
2023-11-25T15:37:40.355Z,7.20
2023-11-25T15:40:09.067Z,7.20
2023-11-25T15:42:36.025Z,7.20
2023-11-25T15:45:02.944Z,7.10
2023-11-25T15:47:30.420Z,7.10
2023-11-25T15:49:57.581Z,7.10
2023-11-25T15:52:24.618Z,7.10
2023-11-25T15:54:53.017Z,7.00
2023-11-25T15:57:19.947Z,7.00
2023-11-25T15:59:48.340Z,7.00
2023-11-25T16:02:17.220Z,6.90
2023-11-25T16:04:44.343Z,7.00
2023-11-25T16:07:14.022Z,6.90
2023-11-25T16:09:42.331Z,6.90
2023-11-25T16:12:12.142Z,6.80
2023-11-25T16:14:39.182Z,6.80
2023-11-25T16:17:07.229Z,6.80
2023-11-25T16:19:34.321Z,6.80
2023-11-25T16:22:01.308Z,6.80
2023-11-25T16:24:28.573Z,6.80
2023-11-25T16:26:55.524Z,6.70
2023-11-25T16:29:24.913Z,6.70
2023-11-25T16:31:52.004Z,6.70
2023-11-25T16:34:19.001Z,6.70
2023-11-25T16:36:45.848Z,6.70
2023-11-25T16:39:18.320Z,6.70
2023-11-25T16:41:50.631Z,6.70
2023-11-25T16:44:20.811Z,6.70
2023-11-25T16:46:49.256Z,6.70
2023-11-25T16:49:16.810Z,6.70
2023-11-25T16:51:43.773Z,6.70
2023-11-25T16:54:10.736Z,6.60
2023-11-25T16:56:37.655Z,6.60
2023-11-25T16:59:06.147Z,6.60
2023-11-25T17:01:33.409Z,6.60
2023-11-25T17:04:01.879Z,6.60
2023-11-25T17:06:29.410Z,6.70
2023-11-25T17:08:56.285Z,6.70
2023-11-25T17:11:24.245Z,6.70
2023-11-25T17:13:52.385Z,6.80
2023-11-25T17:16:21.347Z,6.80
2023-11-25T17:18:48.506Z,6.80
2023-11-25T17:21:17.602Z,6.80
2023-11-25T17:23:44.607Z,6.90
2023-11-25T17:26:12.950Z,6.90
2023-11-25T17:28:40.215Z,6.90
2023-11-25T17:31:07.138Z,6.90
2023-11-25T17:33:34.008Z,6.90
2023-11-25T17:36:00.891Z,6.90
2023-11-25T17:38:29.091Z,7.00
2023-11-25T17:40:56.086Z,7.00
2023-11-25T17:43:23.235Z,7.00
2023-11-25T17:45:50.191Z,7.10
2023-11-25T17:48:17.224Z,7.10
2023-11-25T17:50:44.202Z,7.10
2023-11-25T17:53:14.608Z,7.10
2023-11-25T17:55:43.515Z,7.20
2023-11-25T17:58:10.438Z,7.20
2023-11-25T18:00:39.857Z,7.20
2023-11-25T18:03:08.002Z,7.20
2023-11-25T18:05:37.138Z,7.20
2023-11-25T18:08:04.341Z,7.20
2023-11-25T18:10:31.242Z,7.30
2023-11-25T18:12:59.547Z,7.30
2023-11-25T18:15:26.452Z,7.30
2023-11-25T18:17:53.814Z,7.30
2023-11-25T18:20:20.840Z,7.30
2023-11-25T18:22:47.885Z,7.40
2023-11-25T18:25:15.136Z,7.30
2023-11-25T18:27:45.637Z,7.40
2023-11-25T18:30:15.875Z,7.40
2023-11-25T18:32:42.816Z,7.40
2023-11-25T18:35:10.063Z,7.40
2023-11-25T18:37:37.109Z,7.40
2023-11-25T18:40:04.536Z,7.40
2023-11-25T18:42:32.526Z,7.30
2023-11-25T18:44:59.794Z,7.30
2023-11-25T18:47:28.039Z,7.30
2023-11-25T18:49:55.034Z,7.20
2023-11-25T18:52:21.908Z,7.20
2023-11-25T18:54:48.801Z,7.20
2023-11-25T18:57:15.860Z,7.20
2023-11-25T18:59:45.410Z,7.20
2023-11-25T19:02:12.442Z,7.10
2023-11-25T19:04:40.865Z,7.10
2023-11-25T19:07:07.929Z,7.10
2023-11-25T19:09:34.869Z,7.10
2023-11-25T19:12:01.881Z,7.10
2023-11-25T19:14:31.295Z,7.10
2023-11-25T19:16:58.388Z,7.20
2023-11-25T19:19:25.375Z,7.10
2023-11-25T19:21:54.001Z,7.10
2023-11-25T19:24:21.446Z,7.10
2023-11-25T19:26:48.418Z,7.10
2023-11-25T19:29:16.110Z,7.10
2023-11-25T19:31:43.096Z,7.00
2023-11-25T19:34:10.066Z,7.00
2023-11-25T19:36:37.147Z,6.80
2023-11-25T19:39:06.048Z,7.00
2023-11-25T19:41:33.109Z,7.00
2023-11-25T19:44:00.437Z,6.90
2023-11-25T19:46:27.517Z,6.90
2023-11-25T19:48:54.912Z,6.80
2023-11-25T19:51:21.795Z,6.80
2023-11-25T19:53:51.565Z,6.70
2023-11-25T19:56:20.846Z,6.70
2023-11-25T19:58:48.055Z,6.70
2023-11-25T20:01:15.431Z,6.70
2023-11-25T20:03:42.703Z,6.70
2023-11-25T20:06:10.126Z,6.70
2023-11-25T20:08:37.038Z,6.70
2023-11-25T20:11:04.616Z,6.70
2023-11-25T20:13:33.118Z,6.70
2023-11-25T20:16:00.467Z,6.70
2023-11-25T20:18:27.540Z,6.70
2023-11-25T20:20:54.623Z,6.70
2023-11-25T20:23:23.077Z,6.60
2023-11-25T20:25:50.228Z,6.70
2023-11-25T20:28:17.477Z,6.60
2023-11-25T20:30:45.988Z,6.50
2023-11-25T20:33:13.165Z,6.50
2023-11-25T20:35:40.179Z,6.50
2023-11-25T20:38:07.228Z,6.40
2023-11-25T20:40:34.948Z,6.40
2023-11-25T20:43:01.969Z,6.40
2023-11-25T20:45:29.004Z,6.40
2023-11-25T20:47:59.000Z,6.40
2023-11-25T20:50:26.227Z,6.40
2023-11-25T20:52:53.305Z,6.30
2023-11-25T20:55:21.333Z,6.30
2023-11-25T20:57:48.324Z,6.20
2023-11-25T21:00:15.704Z,6.20
2023-11-25T21:02:42.752Z,6.10
2023-11-25T21:05:11.572Z,6.20
2023-11-25T21:07:38.722Z,6.10
2023-11-25T21:10:07.683Z,6.00
2023-11-25T21:12:34.757Z,6.00
2023-11-25T21:15:02.028Z,6.00
2023-11-25T21:17:28.974Z,5.90
2023-11-25T21:19:55.949Z,5.90
2023-11-25T21:22:27.155Z,5.80
2023-11-25T21:24:54.028Z,5.80
2023-11-25T21:27:20.901Z,5.70
2023-11-25T21:29:47.922Z,5.70
2023-11-25T21:32:14.975Z,5.60
2023-11-25T21:34:42.188Z,5.60
2023-11-25T21:37:09.192Z,5.60
2023-11-25T21:39:37.423Z,5.50
2023-11-25T21:42:04.649Z,5.50
2023-11-25T21:44:31.611Z,5.40
2023-11-25T21:46:58.873Z,5.40
2023-11-25T21:49:25.955Z,5.40
2023-11-25T21:51:52.828Z,5.30
2023-11-25T21:54:19.690Z,5.30
2023-11-25T21:56:47.875Z,5.30
2023-11-25T21:59:15.177Z,5.20
2023-11-25T22:01:42.271Z,5.20
2023-11-25T22:04:09.321Z,5.30
2023-11-25T22:06:36.584Z,5.30
2023-11-25T22:09:04.392Z,5.30
2023-11-25T22:11:32.022Z,5.30
2023-11-25T22:14:00.363Z,5.30
2023-11-25T22:16:27.443Z,5.30
2023-11-25T22:18:54.452Z,5.20
2023-11-25T22:21:21.652Z,5.20
2023-11-25T22:23:48.817Z,5.20
2023-11-25T22:26:20.662Z,5.20
2023-11-25T22:28:48.086Z,4.90
2023-11-25T22:31:17.665Z,5.10
2023-11-25T22:33:45.081Z,5.10
2023-11-25T22:36:25.017Z,5.10
2023-11-25T22:38:52.914Z,5.00
2023-11-25T22:41:20.313Z,5.00
2023-11-25T22:43:54.811Z,5.00
2023-11-25T22:46:24.691Z,5.00
2023-11-25T22:48:52.434Z,5.00
2023-11-25T22:51:22.547Z,4.90
2023-11-25T22:53:50.162Z,4.90
2023-11-25T22:56:17.417Z,4.90
2023-11-25T22:58:44.905Z,4.90
2023-11-25T23:01:13.787Z,4.90
2023-11-25T23:03:42.198Z,4.90
2023-11-25T23:06:10.441Z,4.80
2023-11-25T23:08:38.256Z,4.80
2023-11-25T23:11:05.721Z,4.90
2023-11-25T23:13:32.687Z,4.80
2023-11-25T23:15:59.713Z,4.80
2023-11-25T23:18:26.806Z,4.80
2023-11-25T23:20:55.700Z,4.70
2023-11-25T23:23:22.693Z,4.70
2023-11-25T23:25:49.905Z,4.80
2023-11-25T23:28:17.858Z,4.70
2023-11-25T23:30:44.833Z,4.80
2023-11-25T23:33:11.713Z,4.80
2023-11-25T23:35:38.919Z,4.80
2023-11-25T23:38:08.175Z,4.80
2023-11-25T23:40:35.275Z,4.90
2023-11-25T23:43:02.115Z,4.90
2023-11-25T23:45:29.009Z,4.90
2023-11-25T23:47:56.129Z,5.00
2023-11-25T23:50:23.166Z,5.00
2023-11-25T23:52:50.161Z,5.10
2023-11-25T23:55:18.464Z,5.10
2023-11-25T23:57:45.378Z,5.10
